Terminal Aerodrome Forecast
Issued by NWS

Home | Current Version | Previous Version | Text Only | Print | Product List | Glossary Off
Versions: 1 2 3 4 5 6 7 8 9 10 11 12 13 14 15 16

000
FTUS43 KLSX 051726
TAFCPS
TAF
KCPS 051726Z 0518/0618 35011G17KT P6SM FEW050
     FM060100 VRB03KT P6SM SKC
     FM061400 27005KT P6SM SCT200=

USA.gov is the U.S. government's official web portal to all federal, state and local government web resources and services.